Time;durP1;ratioP1;P1;durP2;ratioP2;P2;SDS_P1;SDS_P2;PMS_P1;PMS_P2;Temp;Humidity;BMP_temperature;BMP_pressure;BME280_temperature;BME280_humidity;BME280_pressure;Samples;Min_cycle;Max_cycle;Signal;HPM_P1;HPM_P2
2021/12/31 00:00:47;;;;;;;;;;;12.50;99.90;;;;;;5096438;28;20411;-85
2021/12/31 00:03:16;;;;;;;;;;;12.50;99.90;;;;;;5095439;28;19971;-84
2021/12/31 00:05:42;;;;;;;;;;;12.50;99.90;;;;;;5097013;28;19965;-82
2021/12/31 00:08:08;;;;;;;;;;;11.80;99.90;;;;;;5094473;28;20011;-83
2021/12/31 00:10:34;;;;;;;;;;;12.60;99.90;;;;;;5096881;28;19927;-83
2021/12/31 00:12:59;;;;;;;;;;;12.60;99.90;;;;;;5112554;28;19920;-83
2021/12/31 00:15:25;;;;;;;;;;;12.60;99.90;;;;;;5129336;27;19920;-85
2021/12/31 00:17:51;;;;;;;;;;;12.60;99.90;;;;;;5128853;27;19927;-83
2021/12/31 00:20:20;;;;;;;;;;;12.60;99.90;;;;;;5095993;28;20011;-84
2021/12/31 00:25:20;;;;;;;;;;;12.60;99.90;;;;;;5096120;28;20310;-83
2021/12/31 00:27:45;;;;;;;;;;;12.60;99.90;;;;;;5095731;28;19927;-84
2021/12/31 00:30:14;;;;;;;;;;;12.60;99.90;;;;;;5094129;28;20003;-84
2021/12/31 00:32:39;;;;;;;;;;;12.60;99.90;;;;;;5096083;28;19973;-83
2021/12/31 00:35:06;;;;;;;;;;;13.00;99.90;;;;;;5094881;28;19920;-83
2021/12/31 00:37:32;;;;;;;;;;;12.70;99.90;;;;;;5095966;28;19942;-83
2021/12/31 00:39:58;;;;;;;;;;;12.60;99.90;;;;;;5095718;28;20397;-84
2021/12/31 00:42:23;;;;;;;;;;;13.80;99.90;;;;;;5095959;28;19923;-83
2021/12/31 00:44:49;;;;;;;;;;;12.60;99.90;;;;;;5096102;28;19920;-84
2021/12/31 00:47:18;;;;;;;;;;;12.60;99.90;;;;;;5128701;27;19920;-83
2021/12/31 00:49:51;;;;;;;;;;;12.60;99.90;;;;;;5095904;28;20432;-84
2021/12/31 00:52:17;;;;;;;;;;;12.60;99.90;;;;;;5095411;28;19924;-84
2021/12/31 00:54:43;;;;;;;;;;;12.60;99.90;;;;;;5095404;28;19927;-84
2021/12/31 00:57:10;;;;;;;;;;;12.60;99.90;;;;;;5095059;28;20385;-82
2021/12/31 00:59:35;;;;;;;;;;;12.60;99.90;;;;;;5094825;28;20382;-84
2021/12/31 01:02:03;;;;;;;;;;;12.60;99.90;;;;;;5095508;28;19920;-83
2021/12/31 01:04:30;;;;;;;;;;;12.60;99.90;;;;;;5095194;28;20362;-83
2021/12/31 01:06:57;;;;;;;;;;;12.20;99.90;;;;;;5095256;28;19942;-85
2021/12/31 01:09:23;;;;;;;;;;;12.00;99.90;;;;;;5093902;28;20355;-86
2021/12/31 01:11:52;;;;;;;;;;;12.70;99.90;;;;;;5095113;28;20015;-84
2021/12/31 01:16:57;;;;;;;;;;;12.70;99.90;;;;;;5094314;28;19920;-86
2021/12/31 01:21:52;;;;;;;;;;;12.70;99.90;;;;;;5095372;28;19920;-83
2021/12/31 01:24:19;;;;;;;;;;;12.70;99.90;;;;;;5094567;28;20274;-83
2021/12/31 01:26:45;;;;;;;;;;;12.70;99.90;;;;;;5095050;28;19920;-83
2021/12/31 01:29:11;;;;;;;;;;;12.70;99.90;;;;;;5094726;28;19927;-83
2021/12/31 01:31:36;;;;;;;;;;;12.70;99.90;;;;;;5094633;28;20358;-84
2021/12/31 01:34:02;;;;;;;;;;;12.70;99.90;;;;;;5094742;28;19927;-83
2021/12/31 01:36:28;;;;;;;;;;;12.70;99.90;;;;;;5094488;28;19974;-83
2021/12/31 01:38:54;;;;;;;;;;;12.70;99.90;;;;;;5093258;28;19920;-83
2021/12/31 01:41:20;;;;;;;;;;;12.70;99.90;;;;;;5094205;28;19971;-84
2021/12/31 01:43:45;;;;;;;;;;;13.00;99.90;;;;;;5093830;28;19920;-83
2021/12/31 01:46:12;;;;;;;;;;;12.70;99.90;;;;;;5093809;28;19927;-83
2021/12/31 01:51:24;;;;;;;;;;;12.70;99.90;;;;;;5094712;28;19920;-86
2021/12/31 01:53:50;;;;;;;;;;;12.60;99.90;;;;;;5095016;28;19920;-83
2021/12/31 01:56:17;;;;;;;;;;;12.70;99.90;;;;;;5094641;28;19965;-83
2021/12/31 01:58:43;;;;;;;;;;;12.70;99.90;;;;;;5095114;28;19971;-82
2021/12/31 02:01:10;;;;;;;;;;;12.70;99.90;;;;;;5093208;28;19969;-82
2021/12/31 02:03:37;;;;;;;;;;;12.70;99.90;;;;;;5094678;28;19921;-82
2021/12/31 02:06:03;;;;;;;;;;;12.80;99.90;;;;;;5093570;28;19920;-82
2021/12/31 02:08:29;;;;;;;;;;;12.80;99.90;;;;;;5094845;28;19920;-82
2021/12/31 02:10:55;;;;;;;;;;;13.00;99.90;;;;;;5094661;28;19945;-85
2021/12/31 02:13:20;;;;;;;;;;;12.70;99.90;;;;;;5110190;28;19920;-84
2021/12/31 02:15:46;;;;;;;;;;;12.80;99.90;;;;;;5094187;28;19920;-85
2021/12/31 02:18:15;;;;;;;;;;;12.80;99.90;;;;;;5094572;28;19974;-85
2021/12/31 02:20:45;;;;;;;;;;;12.70;99.90;;;;;;5093999;28;20281;-83
2021/12/31 02:23:18;;;;;;;;;;;12.70;99.90;;;;;;5094247;28;20367;-82
2021/12/31 02:25:43;;;;;;;;;;;11.40;99.90;;;;;;5094538;28;19920;-83
2021/12/31 02:28:09;;;;;;;;;;;13.00;99.90;;;;;;5094445;28;20373;-83
2021/12/31 02:30:34;;;;;;;;;;;12.60;99.90;;;;;;5096468;28;19927;-83
2021/12/31 02:33:03;;;;;;;;;;;12.70;99.90;;;;;;5097526;28;20011;-83
2021/12/31 02:35:28;;;;;;;;;;;12.70;99.90;;;;;;5098165;28;19919;-82
2021/12/31 02:37:54;;;;;;;;;;;13.50;99.90;;;;;;5097278;28;20297;-82
2021/12/31 02:40:20;;;;;;;;;;;12.80;99.90;;;;;;5130607;27;19927;-82
2021/12/31 02:42:45;;;;;;;;;;;12.80;99.90;;;;;;5097204;28;20366;-84
2021/12/31 02:45:12;;;;;;;;;;;12.70;99.90;;;;;;5097057;28;19971;-81
2021/12/31 02:47:42;;;;;;;;;;;12.70;99.90;;;;;;5096907;28;20388;-81
2021/12/31 02:50:11;;;;;;;;;;;12.80;99.90;;;;;;5097192;28;19920;-80
2021/12/31 02:52:37;;;;;;;;;;;12.80;99.90;;;;;;5096278;28;19924;-82
2021/12/31 02:55:03;;;;;;;;;;;12.80;99.90;;;;;;5097088;28;19927;-81
2021/12/31 02:57:29;;;;;;;;;;;12.80;99.90;;;;;;5097078;28;19959;-82
2021/12/31 02:59:55;;;;;;;;;;;13.40;99.90;;;;;;5096681;28;19920;-82
2021/12/31 03:02:24;;;;;;;;;;;12.80;99.90;;;;;;5096841;28;20006;-81
2021/12/31 03:04:53;;;;;;;;;;;12.90;99.90;;;;;;5095627;28;20061;-82
2021/12/31 03:07:20;;;;;;;;;;;12.80;99.90;;;;;;5096975;28;19924;-81
2021/12/31 03:09:48;;;;;;;;;;;12.90;99.90;;;;;;5096973;28;20379;-84
2021/12/31 03:12:14;;;;;;;;;;;13.00;99.90;;;;;;5096626;28;20310;-83
2021/12/31 03:14:41;;;;;;;;;;;13.00;99.90;;;;;;5096595;28;20010;-82
2021/12/31 03:17:07;;;;;;;;;;;13.00;99.90;;;;;;5096608;28;20353;-81
2021/12/31 03:19:32;;;;;;;;;;;13.00;99.90;;;;;;5096395;28;19927;-82
2021/12/31 03:21:58;;;;;;;;;;;13.00;99.90;;;;;;5096244;28;19920;-82
2021/12/31 03:24:24;;;;;;;;;;;13.00;99.90;;;;;;5129860;27;19920;-82
2021/12/31 03:26:49;;;;;;;;;;;13.00;99.90;;;;;;5096413;28;20394;-82
2021/12/31 03:29:15;;;;;;;;;;;13.00;99.90;;;;;;5096344;28;20367;-85
2021/12/31 03:31:40;;;;;;;;;;;13.00;99.90;;;;;;5095213;28;19959;-81
2021/12/31 03:34:06;;;;;;;;;;;12.80;99.90;;;;;;5095236;28;19963;-81
2021/12/31 03:36:32;;;;;;;;;;;13.00;99.90;;;;;;5096140;28;19974;-83
2021/12/31 03:38:58;;;;;;;;;;;13.00;99.90;;;;;;5096177;28;19920;-82
2021/12/31 03:41:23;;;;;;;;;;;13.10;99.90;;;;;;5095841;28;19920;-81
2021/12/31 03:43:49;;;;;;;;;;;13.10;99.90;;;;;;5096152;28;19920;-84
2021/12/31 03:46:14;;;;;;;;;;;13.10;99.90;;;;;;5128894;27;19919;-83
2021/12/31 03:48:41;;;;;;;;;;;13.10;99.90;;;;;;5096126;28;20007;-82
2021/12/31 03:51:06;;;;;;;;;;;13.10;99.90;;;;;;5094681;28;19920;-81
2021/12/31 03:53:32;;;;;;;;;;;14.20;99.90;;;;;;5095965;28;19945;-82
2021/12/31 03:55:57;;;;;;;;;;;13.00;99.90;;;;;;5096159;28;19920;-81
2021/12/31 03:58:23;;;;;;;;;;;14.20;99.90;;;;;;5095769;28;19927;-81
2021/12/31 04:00:48;;;;;;;;;;;13.10;99.90;;;;;;5095851;28;20355;-82
2021/12/31 04:03:14;;;;;;;;;;;13.10;99.90;;;;;;5095753;28;20287;-82
2021/12/31 04:05:42;;;;;;;;;;;13.10;99.90;;;;;;5095650;28;20007;-83
2021/12/31 04:08:09;;;;;;;;;;;13.10;99.90;;;;;;5095661;28;20422;-81
2021/12/31 04:10:34;;;;;;;;;;;13.20;99.90;;;;;;5095790;28;19926;-82
2021/12/31 04:13:00;;;;;;;;;;;13.10;99.90;;;;;;5128423;27;20329;-81
2021/12/31 04:15:25;;;;;;;;;;;13.10;99.90;;;;;;5111273;28;19927;-82
2021/12/31 04:17:51;;;;;;;;;;;13.10;99.90;;;;;;5095425;28;19926;-81
2021/12/31 04:20:31;;;;;;;;;;;13.20;99.90;;;;;;5094234;28;19931;-81
2021/12/31 04:22:58;;;;;;;;;;;13.20;99.90;;;;;;5095504;28;20523;-82
2021/12/31 04:25:24;;;;;;;;;;;13.20;99.90;;;;;;5111584;28;19920;-81
2021/12/31 04:27:51;;;;;;;;;;;13.20;99.90;;;;;;5095351;28;19965;-81
2021/12/31 04:30:16;;;;;;;;;;;13.20;99.90;;;;;;5095185;28;19974;-81
2021/12/31 04:32:42;;;;;;;;;;;13.10;99.90;;;;;;5095052;28;20389;-82
2021/12/31 04:35:10;;;;;;;;;;;13.10;99.90;;;;;;5095169;28;19927;-83
2021/12/31 04:37:35;;;;;;;;;;;13.20;99.90;;;;;;5095528;28;19927;-82
2021/12/31 04:40:01;;;;;;;;;;;13.20;99.90;;;;;;5095335;28;19920;-81
2021/12/31 04:42:26;;;;;;;;;;;13.20;99.90;;;;;;5094926;28;19924;-82
2021/12/31 04:44:52;;;;;;;;;;;13.10;99.90;;;;;;5095089;28;20291;-82
2021/12/31 04:47:17;;;;;;;;;;;13.20;99.90;;;;;;5094828;28;19971;-84
2021/12/31 04:49:43;;;;;;;;;;;13.20;99.90;;;;;;5094844;28;20009;-82
2021/12/31 04:52:09;;;;;;;;;;;13.20;99.90;;;;;;5094829;28;19986;-81
2021/12/31 04:54:34;;;;;;;;;;;13.20;99.90;;;;;;5095379;28;19920;-82
2021/12/31 04:57:00;;;;;;;;;;;13.20;99.90;;;;;;5095165;28;19943;-82
2021/12/31 04:59:26;;;;;;;;;;;13.20;99.90;;;;;;5128343;27;20003;-81
2021/12/31 05:01:52;;;;;;;;;;;13.10;99.90;;;;;;5095279;28;19963;-84
2021/12/31 05:04:17;;;;;;;;;;;13.20;99.90;;;;;;5094814;28;19924;-83
2021/12/31 05:06:43;;;;;;;;;;;13.20;99.90;;;;;;5094504;28;19920;-82
2021/12/31 05:09:11;;;;;;;;;;;13.10;99.90;;;;;;5094892;28;19927;-81
2021/12/31 05:11:37;;;;;;;;;;;13.10;99.90;;;;;;5111104;28;19924;-82
2021/12/31 05:14:04;;;;;;;;;;;13.10;99.90;;;;;;5093423;28;19972;-81
2021/12/31 05:16:30;;;;;;;;;;;13.10;99.90;;;;;;5094516;28;19920;-81
2021/12/31 05:18:56;;;;;;;;;;;13.20;99.90;;;;;;5094740;28;19927;-82
2021/12/31 05:21:21;;;;;;;;;;;13.20;99.90;;;;;;5094475;28;19924;-82
2021/12/31 05:23:47;;;;;;;;;;;13.20;99.90;;;;;;5093591;28;19974;-83
2021/12/31 05:26:12;;;;;;;;;;;13.20;99.90;;;;;;5095004;28;19924;-81
2021/12/31 05:28:38;;;;;;;;;;;13.20;99.90;;;;;;5094392;28;19920;-81
2021/12/31 05:31:03;;;;;;;;;;;13.10;99.90;;;;;;5094821;28;20356;-81
2021/12/31 05:33:30;;;;;;;;;;;13.10;99.90;;;;;;5094675;28;19967;-83
2021/12/31 05:35:59;;;;;;;;;;;13.20;99.90;;;;;;5093240;28;19920;-83
2021/12/31 05:38:25;;;;;;;;;;;13.10;99.90;;;;;;5093946;28;19946;-82
2021/12/31 05:40:51;;;;;;;;;;;13.20;99.90;;;;;;5126717;27;19922;-82
2021/12/31 05:43:16;;;;;;;;;;;13.20;99.90;;;;;;5094164;28;19920;-83
2021/12/31 05:45:42;;;;;;;;;;;13.20;99.90;;;;;;5093885;28;19920;-82
2021/12/31 05:48:07;;;;;;;;;;;13.20;99.90;;;;;;5093720;28;19920;-82
2021/12/31 05:50:33;;;;;;;;;;;13.20;99.90;;;;;;5076070;28;19927;-82
2021/12/31 05:53:00;;;;;;;;;;;13.20;99.90;;;;;;5093951;28;19920;-83
2021/12/31 05:55:26;;;;;;;;;;;13.20;99.90;;;;;;5094093;28;19920;-81
2021/12/31 05:57:52;;;;;;;;;;;13.20;99.90;;;;;;5093914;28;20003;-84
2021/12/31 06:00:18;;;;;;;;;;;13.20;99.90;;;;;;5093698;28;20008;-82
2021/12/31 06:02:43;;;;;;;;;;;13.20;99.90;;;;;;5093624;28;20359;-82
2021/12/31 06:05:09;;;;;;;;;;;13.10;99.90;;;;;;5097610;28;19926;-81
2021/12/31 06:07:35;;;;;;;;;;;13.20;99.90;;;;;;5096808;28;19968;-83
2021/12/31 06:10:03;;;;;;;;;;;13.20;99.90;;;;;;5113494;28;19998;-82
2021/12/31 06:12:29;;;;;;;;;;;13.20;99.90;;;;;;5131280;27;19927;-81
2021/12/31 06:14:58;;;;;;;;;;;13.20;99.90;;;;;;5097909;28;20010;-83
2021/12/31 06:17:26;;;;;;;;;;;13.20;99.90;;;;;;5097975;28;19920;-81
2021/12/31 06:19:53;;;;;;;;;;;13.20;99.90;;;;;;5097811;28;20347;-83
2021/12/31 06:22:22;;;;;;;;;;;13.20;99.90;;;;;;5096743;28;20006;-81
2021/12/31 06:24:48;;;;;;;;;;;13.20;99.90;;;;;;5098091;28;19924;-84
2021/12/31 06:27:13;;;;;;;;;;;13.30;99.90;;;;;;5096832;28;19990;-82
2021/12/31 06:29:39;;;;;;;;;;;13.80;99.90;;;;;;5097647;28;20018;-82
2021/12/31 06:32:04;;;;;;;;;;;13.30;99.90;;;;;;5097500;28;20386;-83
2021/12/31 06:34:30;;;;;;;;;;;13.30;99.90;;;;;;5097548;28;19965;-82
2021/12/31 06:36:56;;;;;;;;;;;13.30;99.90;;;;;;5079164;28;19972;-81
2021/12/31 06:39:21;;;;;;;;;;;13.30;99.90;;;;;;5097698;28;19966;-82
2021/12/31 06:41:47;;;;;;;;;;;13.30;99.90;;;;;;5097265;28;19969;-82
2021/12/31 06:44:13;;;;;;;;;;;13.30;99.90;;;;;;5097209;28;19931;-82
2021/12/31 06:46:39;;;;;;;;;;;13.20;99.90;;;;;;5097204;28;19967;-82
2021/12/31 06:49:05;;;;;;;;;;;13.30;99.90;;;;;;5096990;28;19975;-82
2021/12/31 06:51:30;;;;;;;;;;;13.50;99.90;;;;;;5097090;28;20283;-81
2021/12/31 06:53:56;;;;;;;;;;;13.30;99.90;;;;;;5097111;28;19920;-82
2021/12/31 06:56:21;;;;;;;;;;;12.90;99.90;;;;;;5097523;28;19920;-81
2021/12/31 06:58:47;;;;;;;;;;;13.30;99.90;;;;;;5097258;28;19927;-81
2021/12/31 07:01:13;;;;;;;;;;;13.30;99.90;;;;;;5097089;28;19924;-79
2021/12/31 07:03:38;;;;;;;;;;;13.20;99.90;;;;;;5096012;28;20303;-81
2021/12/31 07:06:04;;;;;;;;;;;13.30;99.90;;;;;;5096826;28;19920;-82
2021/12/31 07:08:29;;;;;;;;;;;13.20;99.90;;;;;;5096990;28;19920;-81
2021/12/31 07:10:55;;;;;;;;;;;12.30;99.90;;;;;;5079145;28;19920;-83
2021/12/31 07:13:21;;;;;;;;;;;12.10;99.90;;;;;;5096710;28;19927;-83
2021/12/31 07:15:49;;;;;;;;;;;13.20;99.90;;;;;;5095327;28;20022;-82
2021/12/31 07:18:18;;;;;;;;;;;13.20;99.90;;;;;;5096655;28;19994;-81
2021/12/31 07:20:43;;;;;;;;;;;13.10;99.90;;;;;;5096599;28;19946;-82
2021/12/31 07:23:11;;;;;;;;;;;13.20;99.90;;;;;;5096432;28;19923;-82
2021/12/31 07:25:38;;;;;;;;;;;13.10;99.90;;;;;;5095591;28;19920;-82
2021/12/31 07:28:04;;;;;;;;;;;13.20;99.90;;;;;;5129508;27;19924;-81
2021/12/31 07:30:30;;;;;;;;;;;13.20;99.90;;;;;;5095310;28;20000;-83
2021/12/31 07:32:55;;;;;;;;;;;13.10;99.90;;;;;;5095819;28;19965;-84
2021/12/31 07:35:23;;;;;;;;;;;13.10;99.90;;;;;;5096466;28;19919;-81
2021/12/31 07:37:52;;;;;;;;;;;13.10;99.90;;;;;;5128697;27;19928;-81
2021/12/31 07:40:25;;;;;;;;;;;13.10;99.90;;;;;;5095536;28;19989;-81
2021/12/31 07:42:54;;;;;;;;;;;13.20;99.90;;;;;;5095079;28;19927;-82
2021/12/31 07:45:20;;;;;;;;;;;12.60;99.90;;;;;;5129176;27;19969;-83
2021/12/31 07:47:45;;;;;;;;;;;13.10;99.90;;;;;;5095820;28;19924;-81
2021/12/31 07:50:11;;;;;;;;;;;13.20;99.90;;;;;;5096224;28;20390;-83
2021/12/31 07:52:37;;;;;;;;;;;13.10;99.90;;;;;;5095768;28;19924;-81
2021/12/31 07:55:04;;;;;;;;;;;13.10;99.90;;;;;;5095333;28;19924;-81
2021/12/31 07:57:29;;;;;;;;;;;13.10;99.90;;;;;;5096050;28;19920;-80
2021/12/31 07:59:55;;;;;;;;;;;13.10;99.90;;;;;;5095753;28;20022;-82
2021/12/31 08:02:20;;;;;;;;;;;13.10;99.90;;;;;;5095726;28;19926;-83
2021/12/31 08:04:46;;;;;;;;;;;13.10;99.90;;;;;;5094379;28;20019;-81
2021/12/31 08:07:11;;;;;;;;;;;13.10;99.90;;;;;;5095489;28;19920;-81
2021/12/31 08:09:37;;;;;;;;;;;13.10;99.90;;;;;;5095005;28;19928;-81
2021/12/31 08:12:03;;;;;;;;;;;13.40;99.90;;;;;;5094516;28;20294;-82
2021/12/31 08:14:29;;;;;;;;;;;13.00;99.90;;;;;;5095520;28;19920;-82
2021/12/31 08:16:54;;;;;;;;;;;13.00;99.90;;;;;;5094225;28;19920;-83
2021/12/31 08:19:20;;;;;;;;;;;13.90;99.90;;;;;;5095299;28;20426;-82
2021/12/31 08:21:45;;;;;;;;;;;13.00;99.90;;;;;;5095333;28;19927;-81
2021/12/31 08:24:11;;;;;;;;;;;13.00;99.90;;;;;;5094188;28;20024;-79
2021/12/31 08:26:38;;;;;;;;;;;13.00;99.90;;;;;;5093742;28;20040;-83
2021/12/31 08:29:05;;;;;;;;;;;12.90;99.90;;;;;;5094788;28;19920;-82
2021/12/31 08:31:30;;;;;;;;;;;13.00;99.90;;;;;;5095047;28;19919;-84
2021/12/31 08:33:56;;;;;;;;;;;12.90;99.90;;;;;;5093696;28;20035;-81
2021/12/31 08:36:21;;;;;;;;;;;13.10;99.90;;;;;;5111002;28;20298;-82
2021/12/31 08:38:47;;;;;;;;;;;12.90;99.90;;;;;;5128111;27;19927;-81
2021/12/31 08:41:13;;;;;;;;;;;12.90;99.90;;;;;;5094962;28;20488;-81
2021/12/31 08:43:38;;;;;;;;;;;13.00;99.90;;;;;;5095007;28;19919;-81
2021/12/31 08:46:04;;;;;;;;;;;12.90;99.90;;;;;;5095041;28;20343;-80
2021/12/31 08:48:29;;;;;;;;;;;12.90;99.90;;;;;;5094533;28;19920;-82
2021/12/31 08:50:55;;;;;;;;;;;13.40;99.90;;;;;;5094618;28;19970;-80
2021/12/31 08:53:20;;;;;;;;;;;12.90;99.90;;;;;;5094510;28;20057;-81
2021/12/31 08:55:46;;;;;;;;;;;12.90;99.90;;;;;;5094471;28;19942;-81
2021/12/31 08:58:12;;;;;;;;;;;12.80;99.90;;;;;;5076644;28;19966;-82
2021/12/31 09:00:38;;;;;;;;;;;12.80;99.90;;;;;;5127711;27;20021;-84
2021/12/31 09:03:03;;;;;;;;;;;12.80;99.90;;;;;;5093417;28;19926;-82
2021/12/31 09:05:30;;;;;;;;;;;12.80;99.90;;;;;;5094431;28;19927;-80
2021/12/31 09:07:56;;;;;;;;;;;12.80;99.90;;;;;;5094320;28;19945;-82
2021/12/31 09:10:21;;;;;;;;;;;12.80;99.90;;;;;;5094400;28;19920;-83
2021/12/31 09:12:47;;;;;;;;;;;12.80;99.90;;;;;;5110543;28;19920;-82
2021/12/31 09:15:13;;;;;;;;;;;12.80;99.90;;;;;;5093367;28;19923;-81
2021/12/31 09:17:39;;;;;;;;;;;12.90;99.90;;;;;;5094158;28;19965;-85
2021/12/31 09:20:05;;;;;;;;;;;12.90;99.90;;;;;;5094307;28;19920;-81
2021/12/31 09:22:31;;;;;;;;;;;12.90;99.90;;;;;;5093053;28;19927;-78
2021/12/31 09:24:58;;;;;;;;;;;12.90;99.90;;;;;;5094205;28;19927;-81
2021/12/31 09:27:24;;;;;;;;;;;13.00;99.90;;;;;;5093440;28;19962;-81
2021/12/31 09:29:50;;;;;;;;;;;13.00;99.90;;;;;;5094092;28;19920;-82
2021/12/31 09:32:15;;;;;;;;;;;13.50;99.90;;;;;;5093319;28;20375;-80
2021/12/31 09:34:43;;;;;;;;;;;13.10;99.90;;;;;;5094095;28;19920;-81
2021/12/31 09:37:10;;;;;;;;;;;13.00;99.90;;;;;;5093179;28;20375;-80
2021/12/31 09:39:35;;;;;;;;;;;13.00;99.90;;;;;;5093895;28;19920;-82
2021/12/31 09:42:01;;;;;;;;;;;13.00;99.90;;;;;;5093988;28;19923;-80
2021/12/31 09:44:27;;;;;;;;;;;13.10;99.90;;;;;;5093154;28;19919;-81
2021/12/31 09:46:52;;;;;;;;;;;13.10;99.90;;;;;;5127084;27;19947;-80
2021/12/31 09:49:19;;;;;;;;;;;13.30;99.90;;;;;;5093887;28;20333;-79
2021/12/31 09:51:44;;;;;;;;;;;13.10;99.90;;;;;;5094116;28;19920;-82
2021/12/31 09:54:11;;;;;;;;;;;13.10;99.90;;;;;;5075820;28;19973;-82
2021/12/31 09:56:40;;;;;;;;;;;13.10;99.90;;;;;;5092807;28;19930;-80
2021/12/31 09:59:07;;;;;;;;;;;13.10;99.90;;;;;;5094154;28;19920;-79
2021/12/31 10:01:33;;;;;;;;;;;13.10;99.90;;;;;;5094012;28;19920;-81
2021/12/31 10:04:00;;;;;;;;;;;13.10;99.90;;;;;;5093947;28;19920;-84
2021/12/31 10:06:26;;;;;;;;;;;13.10;99.90;;;;;;5092965;28;20014;-80
2021/12/31 10:08:53;;;;;;;;;;;13.00;99.90;;;;;;5092887;28;20007;-81
2021/12/31 10:11:22;;;;;;;;;;;13.10;99.90;;;;;;5093740;28;19937;-81
2021/12/31 10:13:55;;;;;;;;;;;12.80;99.90;;;;;;5093781;28;19927;-81
2021/12/31 10:16:26;;;;;;;;;;;13.00;99.90;;;;;;5093672;28;20383;-82
2021/12/31 10:19:12;;;;;;;;;;;13.00;99.90;;;;;;5093781;28;19967;-81
2021/12/31 10:21:40;;;;;;;;;;;13.00;99.90;;;;;;5092945;28;19924;-81
2021/12/31 10:24:25;;;;;;;;;;;12.90;99.90;;;;;;5093760;28;19964;-82
2021/12/31 10:26:51;;;;;;;;;;;12.90;99.90;;;;;;5093894;28;19943;-81
2021/12/31 10:29:17;;;;;;;;;;;12.90;99.90;;;;;;5093492;28;20491;-80
2021/12/31 10:31:44;;;;;;;;;;;12.90;99.90;;;;;;5092609;28;19920;-80
2021/12/31 10:34:25;;;;;;;;;;;12.90;99.90;;;;;;5092688;28;20371;-82
2021/12/31 10:36:50;;;;;;;;;;;12.90;99.90;;;;;;5075871;28;19964;-81
2021/12/31 10:39:16;;;;;;;;;;;12.70;99.90;;;;;;5109524;28;20013;-80
2021/12/31 10:41:41;;;;;;;;;;;12.90;99.90;;;;;;5092254;28;19919;-80
2021/12/31 10:44:07;;;;;;;;;;;12.90;99.90;;;;;;5091282;28;19994;-81
2021/12/31 10:46:32;;;;;;;;;;;12.90;99.90;;;;;;5092146;28;19927;-81
2021/12/31 10:49:06;;;;;;;;;;;12.90;99.90;;;;;;5092749;28;19920;-81
2021/12/31 10:51:46;;;;;;;;;;;12.90;99.90;;;;;;5095078;28;20004;-80
2021/12/31 10:54:29;;;;;;;;;;;12.80;99.90;;;;;;5096020;28;19974;-80
2021/12/31 10:56:55;;;;;;;;;;;12.80;99.90;;;;;;5095700;28;19920;-81
2021/12/31 10:59:21;;;;;;;;;;;12.90;99.90;;;;;;5096123;28;19920;-81
2021/12/31 11:01:47;;;;;;;;;;;12.80;99.90;;;;;;5096728;28;20015;-81
2021/12/31 11:04:12;;;;;;;;;;;12.80;99.90;;;;;;5095676;28;19920;-81
2021/12/31 11:06:40;;;;;;;;;;;12.80;99.90;;;;;;5096905;28;19920;-80
2021/12/31 11:09:07;;;;;;;;;;;12.80;99.90;;;;;;5096718;28;19970;-81
2021/12/31 11:11:34;;;;;;;;;;;12.80;99.90;;;;;;5095136;28;19931;-81
2021/12/31 11:14:00;;;;;;;;;;;12.80;99.90;;;;;;5096619;28;19971;-78
2021/12/31 11:16:25;;;;;;;;;;;12.90;99.90;;;;;;5096582;28;19920;-81
2021/12/31 11:18:51;;;;;;;;;;;12.80;99.90;;;;;;5095787;28;20449;-80
2021/12/31 11:21:17;;;;;;;;;;;12.80;99.90;;;;;;5095444;28;19924;-79
2021/12/31 11:23:44;;;;;;;;;;;12.80;99.90;;;;;;5096606;28;19927;-79
2021/12/31 11:26:11;;;;;;;;;;;12.90;99.90;;;;;;5095417;28;19920;-80
2021/12/31 11:28:38;;;;;;;;;;;12.80;99.90;;;;;;5095077;28;19973;-80
2021/12/31 11:31:19;;;;;;;;;;;12.80;99.90;;;;;;5096108;28;19981;-80
2021/12/31 11:33:45;;;;;;;;;;;12.70;99.90;;;;;;5096163;28;20302;-80
2021/12/31 11:36:11;;;;;;;;;;;12.70;99.90;;;;;;5096481;28;19920;-79
2021/12/31 11:38:41;;;;;;;;;;;12.70;99.90;;;;;;5096306;28;20331;-80
2021/12/31 11:41:08;;;;;;;;;;;12.70;99.90;;;;;;5096247;28;20284;-78
2021/12/31 11:43:38;;;;;;;;;;;12.60;99.90;;;;;;5095138;28;19924;-79
2021/12/31 11:46:10;;;;;;;;;;;12.50;99.90;;;;;;5095281;28;20022;-81
2021/12/31 11:48:48;;;;;;;;;;;12.50;99.90;;;;;;5095840;28;19919;-81
2021/12/31 11:51:14;;;;;;;;;;;12.40;99.90;;;;;;5096040;28;20358;-81
2021/12/31 11:54:01;;;;;;;;;;;10.70;99.90;;;;;;5094746;28;19920;-81
2021/12/31 11:56:32;;;;;;;;;;;12.30;99.90;;;;;;5095942;28;20442;-82
2021/12/31 11:59:07;;;;;;;;;;;12.30;99.90;;;;;;5078196;28;19927;-81
2021/12/31 12:01:54;;;;;;;;;;;12.30;99.90;;;;;;5095829;28;20040;-82
2021/12/31 12:04:20;;;;;;;;;;;12.20;99.90;;;;;;5096115;28;19920;-81
2021/12/31 12:07:04;;;;;;;;;;;12.20;99.90;;;;;;5095546;28;20014;-80
2021/12/31 12:09:36;;;;;;;;;;;12.10;99.90;;;;;;5094827;28;19920;-81
2021/12/31 12:12:08;;;;;;;;;;;12.10;99.90;;;;;;5095806;28;20006;-81
2021/12/31 12:14:40;;;;;;;;;;;10.90;99.90;;;;;;5095616;28;19927;-81
2021/12/31 12:17:07;;;;;;;;;;;12.10;99.90;;;;;;5094396;28;19927;-80
2021/12/31 12:19:51;;;;;;;;;;;12.10;99.90;;;;;;5094320;28;19919;-80
2021/12/31 12:22:35;;;;;;;;;;;12.10;99.90;;;;;;5095517;28;19920;-80
2021/12/31 12:25:11;;;;;;;;;;;12.10;99.90;;;;;;5095826;28;19924;-81
2021/12/31 12:27:38;;;;;;;;;;;12.10;99.90;;;;;;5094790;28;19969;-84
2021/12/31 12:30:05;;;;;;;;;;;12.00;99.90;;;;;;5095417;28;19950;-82
2021/12/31 12:32:35;;;;;;;;;;;12.00;99.90;;;;;;5095712;28;19972;-81
2021/12/31 12:35:21;;;;;;;;;;;11.90;99.90;;;;;;5095373;28;20386;-81
2021/12/31 12:38:05;;;;;;;;;;;11.80;99.90;;;;;;5095167;28;19965;-81
2021/12/31 12:40:46;;;;;;;;;;;11.80;99.90;;;;;;5094855;28;19920;-82
2021/12/31 12:43:18;;;;;;;;;;;11.70;99.90;;;;;;5095092;28;20030;-82
2021/12/31 12:45:45;;;;;;;;;;;11.70;99.90;;;;;;5094841;28;19920;-81
2021/12/31 12:48:11;;;;;;;;;;;11.70;99.90;;;;;;5094600;28;19975;-82
2021/12/31 12:50:37;;;;;;;;;;;11.70;99.90;;;;;;5095118;28;19963;-80
2021/12/31 12:53:02;;;;;;;;;;;11.60;99.90;;;;;;5093883;28;19920;-81
2021/12/31 12:55:29;;;;;;;;;;;12.20;99.90;;;;;;5076780;28;19920;-81
2021/12/31 12:57:56;;;;;;;;;;;11.60;99.90;;;;;;5094793;28;19919;-82
2021/12/31 13:00:32;;;;;;;;;;;11.60;99.90;;;;;;5093812;28;20333;-80
2021/12/31 13:03:08;;;;;;;;;;;11.60;99.90;;;;;;5093160;28;19931;-83
2021/12/31 13:05:34;;;;;;;;;;;11.60;99.90;;;;;;5092285;28;20061;-80
2021/12/31 13:08:00;;;;;;;;;;;11.60;99.90;;;;;;5094877;28;20022;-81
2021/12/31 13:10:26;;;;;;;;;;;11.60;99.90;;;;;;5094676;28;19924;-81
2021/12/31 13:12:53;;;;;;;;;;;11.60;99.90;;;;;;5093964;28;19924;-81
2021/12/31 13:15:19;;;;;;;;;;;11.60;99.90;;;;;;5093246;28;19928;-81
2021/12/31 13:18:00;;;;;;;;;;;11.60;99.90;;;;;;5127135;27;20030;-80
2021/12/31 13:20:27;;;;;;;;;;;11.60;99.90;;;;;;5094240;28;20570;-81
2021/12/31 13:22:57;;;;;;;;;;;11.60;99.90;;;;;;5093338;28;19920;-84
2021/12/31 13:25:36;;;;;;;;;;;11.60;99.90;;;;;;5092929;28;20447;-81
2021/12/31 13:28:12;;;;;;;;;;;11.20;99.90;;;;;;5093040;28;19920;-81
2021/12/31 13:30:54;;;;;;;;;;;11.60;99.90;;;;;;5094069;28;20430;-80
2021/12/31 13:33:30;;;;;;;;;;;11.60;99.90;;;;;;5093340;28;20024;-82
2021/12/31 13:36:14;;;;;;;;;;;11.60;99.90;;;;;;5094209;28;20389;-81
2021/12/31 13:38:55;;;;;;;;;;;10.00;99.90;;;;;;5093938;28;20374;-81
2021/12/31 13:41:21;;;;;;;;;;;11.60;99.90;;;;;;5093879;28;20370;-80
2021/12/31 13:43:57;;;;;;;;;;;10.60;99.90;;;;;;5094240;28;19927;-81
2021/12/31 13:46:36;;;;;;;;;;;11.50;99.90;;;;;;5093992;28;19920;-80
2021/12/31 13:49:20;;;;;;;;;;;11.50;99.90;;;;;;5093551;28;19974;-80
2021/12/31 13:51:46;;;;;;;;;;;11.50;99.90;;;;;;5093885;28;19927;-80
2021/12/31 13:54:13;;;;;;;;;;;11.50;99.90;;;;;;5094136;28;19920;-81
2021/12/31 13:56:41;;;;;;;;;;;11.50;99.90;;;;;;5094000;28;19919;-82
2021/12/31 13:59:33;;;;;;;;;;;11.50;99.90;;;;;;5092888;28;19931;-82
2021/12/31 14:02:02;;;;;;;;;;;11.50;99.90;;;;;;5093786;28;19965;-83
2021/12/31 14:04:27;;;;;;;;;;;11.50;99.90;;;;;;5092760;28;19923;-81
2021/12/31 14:07:01;;;;;;;;;;;11.50;99.90;;;;;;5093914;28;20367;-81
2021/12/31 14:09:27;;;;;;;;;;;11.50;99.90;;;;;;5093653;28;20290;-80
2021/12/31 14:11:53;;;;;;;;;;;11.50;99.90;;;;;;5093717;28;20023;-80
2021/12/31 14:14:19;;;;;;;;;;;11.50;99.90;;;;;;5092497;28;19926;-82
2021/12/31 14:16:44;;;;;;;;;;;12.00;99.90;;;;;;5092880;28;20257;-80
2021/12/31 14:19:10;;;;;;;;;;;11.50;99.90;;;;;;5093530;28;19924;-80
2021/12/31 14:21:36;;;;;;;;;;;11.80;99.90;;;;;;5093908;28;19927;-83
2021/12/31 14:24:02;;;;;;;;;;;11.50;99.90;;;;;;5093803;28;19935;-79
2021/12/31 14:26:27;;;;;;;;;;;11.50;99.90;;;;;;5097728;28;20386;-80
2021/12/31 14:28:53;;;;;;;;;;;11.50;99.90;;;;;;5078946;28;19923;-82